Willow Springs, IL (60480)

2:17 PM CST en Noviembre 21, 2014 (GMT -0600)
Palos Hills | Change Station
CLOSE
Current Station
Estación meteorológica personal
Location: Palos Hills, IL
Altura: 712 ft
Estaciones meteorológicas cercanas

Alt 712 ft 41.71 °N, 87.84 °W | Updated 14 minutes ago

Despejado
Despejado
34.2 ° F
Sensación térmica 30 ° F
N
5.0
Viento Variable Viento desde Sur
Gusts 15.0 mph

Hoy
Alta -- | Baja -- ° F
--% Posibilidad de precipitaciones
Ayer
Alta -- | Baja -- ° F
Precip. -- pul
6:47 AM 4:26 PM
Creciente menguante, 1% visible
Presión 30.41 pul
Visibilidad 10.0 Millas
Nubes Despejado
Vientos helados 30 ° F
Punto de rocío 8 ° F
Humedad 32%
Precipitaciones -999.00 pul
Espesor de la nieve No disponible.
UV 2 de una escala de 12
Polen .10 de una escala de 12
Calidad del aire No disponible.
Flu Activity No disponible.
METAR KMDW 211953Z 19011G18KT 10SM CLR 01/M16 A3036 RMK AO2 SLP298 T00111161

More Conditions Fewer Conditions

Presión 30.41 pul
Visibilidad 10.0 Millas
Nubes Despejado
Vientos helados 30 ° F
Punto de rocío 8 ° F
Humedad 32%
Precipitaciones -999.00 pul
Espesor de la nieve No disponible.
UV 2 de una escala de 12
Polen .10 de una escala de 12
Calidad del aire No disponible.
Flu Activity No disponible.
METAR KMDW 211953Z 19011G18KT 10SM CLR 01/M16 A3036 RMK AO2 SLP298 T00111161

More Conditions Fewer Conditions

10-Day Weather Forecast

Almanac

Astronomía

Nov. 21, 2014 Salida Puesta
Hora real
Crepúsculo civil
Crepúsculo náutico
Crepúsculo astronómico
Luna
Horas de luz
Horas de luz
Tomorrow will be .
, % of the Moon is Illuminated

Extremos de hoy

Máximos del estado Bajos del estado

Community

WunderPhotos

Upload Photos

1,772,710 ¡fotos cargadas!

WunderBlogs® & News

Nearby

Calidad del aire

  Calidad del aire Índice AQ Contaminante
Not available.

Grosos de nieve

Estación Profundido Altura

Actividad de terremotos

Ciudad Distance Mag. Tiempo y dato
Magnitud mínima muestra es 2,5.

Temperaturas de aguas costeras

Lugar Temperatura

Estaciones meteorológicas cercanas